Luna, New Mexico
Current Conditions -  °F | °C
As of 3:40 PM on Thursday 18 Dec 2014 (Local Time) from KJTC Reporting Station
Light Snow Light Snow  
Wind Chill: 24°   Ceiling: 200
Heat Index: 32°   Visibility: 1mi
Dew Point: 30°   Wind: 9mph
Humidity: 93%   Direction: 340°NNW
Pressure: 30.11"   Gusts: NA
Location:  33.82°N, 108.95°W
Report Text: KJTC 182240Z AUTO 34008KT 1SM -SN BKN002 OVC010 00/M01 A3011 RMK AO2
Loading
Personal Weather Stations






























Interactive Weather Map New forecast layout! Learn more

10-Day Weather Forecast

Advertisements
Track Severe Weather on mobile